Time;durP1;ratioP1;P1;durP2;ratioP2;P2;SDS_P1;SDS_P2;PMS_P1;PMS_P2;Temp;Humidity;BMP_temperature;BMP_pressure;BME280_temperature;BME280_humidity;BME280_pressure;Samples;Min_cycle;Max_cycle;Signal;HPM_P1;HPM_P2
2022/09/26 00:01:18;;;;;;;16.85;12.00;;;12.30;99.90;;;;;;5053191;28;20044;-65
2022/09/26 00:03:47;;;;;;;17.55;11.68;;;12.30;99.90;;;;;;5053492;28;20488;-65
2022/09/26 00:06:12;;;;;;;19.73;12.38;;;12.30;99.90;;;;;;5053113;28;20048;-65
2022/09/26 00:08:38;;;;;;;18.37;11.50;;;12.20;99.90;;;;;;5053906;28;20477;-66
2022/09/26 00:11:07;;;;;;;16.13;10.85;;;12.30;99.90;;;;;;5053050;28;20477;-65
2022/09/26 00:13:35;;;;;;;14.65;10.75;;;12.30;99.90;;;;;;5053083;28;20029;-65
2022/09/26 00:16:01;;;;;;;16.23;11.00;;;12.30;99.90;;;;;;5053092;28;20024;-65
2022/09/26 00:18:27;;;;;;;14.82;9.93;;;12.30;99.90;;;;;;5053135;28;20192;-65
2022/09/26 00:20:52;;;;;;;18.23;11.77;;;12.30;99.90;;;;;;5053048;28;20136;-66
2022/09/26 00:23:18;;;;;;;15.43;10.93;;;12.30;99.90;;;;;;5052977;28;20039;-66
2022/09/26 00:25:49;;;;;;;18.25;11.80;;;12.30;99.90;;;;;;5053026;28;20033;-66
2022/09/26 00:28:15;;;;;;;16.13;11.07;;;12.40;99.90;;;;;;5053370;28;20039;-66
2022/09/26 00:30:41;;;;;;;14.55;10.20;;;12.40;99.90;;;;;;5034928;28;20544;-66
2022/09/26 00:33:06;;;;;;;13.35;10.15;;;12.40;99.90;;;;;;5053192;28;20105;-66
2022/09/26 00:35:32;;;;;;;15.93;11.07;;;12.30;99.90;;;;;;5053092;28;20382;-66
2022/09/26 00:37:58;;;;;;;16.73;11.17;;;12.10;99.90;;;;;;5053043;28;20071;-66
2022/09/26 00:40:25;;;;;;;13.73;11.10;;;12.20;99.90;;;;;;5052890;28;20699;-66
2022/09/26 00:42:51;;;;;;;14.32;9.93;;;12.20;99.90;;;;;;5053374;28;20066;-65
2022/09/26 00:45:17;;;;;;;15.45;11.00;;;12.30;99.90;;;;;;5053501;28;20167;-65
2022/09/26 00:47:47;;;;;;;16.05;11.70;;;12.30;99.90;;;;;;5053306;28;20505;-65
2022/09/26 00:50:23;;;;;;;13.52;10.52;;;12.30;99.90;;;;;;5052979;28;20044;-66
2022/09/26 00:52:57;;;;;;;15.25;10.27;;;12.30;99.90;;;;;;5052698;28;20025;-66
2022/09/26 00:55:29;;;;;;;20.60;12.35;;;12.20;99.90;;;;;;5052705;28;20553;-65
2022/09/26 00:58:12;;;;;;;15.30;10.70;;;12.30;99.90;;;;;;5053667;28;20017;-65
2022/09/26 01:00:40;;;;;;;16.15;10.52;;;12.10;99.90;;;;;;5052554;28;20028;-66
2022/09/26 01:03:06;;;;;;;16.90;10.45;;;12.10;99.90;;;;;;5052768;28;20104;-66
2022/09/26 01:05:34;;;;;;;13.27;9.75;;;12.20;99.90;;;;;;5053133;28;20121;-66
2022/09/26 01:08:01;;;;;;;14.13;9.25;;;12.10;99.90;;;;;;5053149;28;20086;-65
2022/09/26 01:10:28;;;;;;;14.23;9.77;;;12.10;99.90;;;;;;5054657;28;20095;-66
2022/09/26 01:12:56;;;;;;;13.40;8.40;;;12.10;99.90;;;;;;5056589;28;20043;-66
2022/09/26 01:15:22;;;;;;;15.05;9.45;;;12.10;99.90;;;;;;5056281;28;20432;-66
2022/09/26 01:17:48;;;;;;;13.93;9.90;;;12.00;99.90;;;;;;5056370;28;20029;-66
2022/09/26 01:20:27;;;;;;;13.40;9.00;;;12.00;99.90;;;;;;5056067;28;20040;-66
2022/09/26 01:23:40;;;;;;;13.57;8.57;;;12.10;99.90;;;;;;5056233;28;20036;-66
2022/09/26 01:26:18;;;;;;;11.88;8.88;;;12.00;99.90;;;;;;5050445;28;20097;-66
2022/09/26 01:29:19;;;;;;;14.23;9.07;;;12.00;99.90;;;;;;5055872;28;20040;-65
2022/09/26 01:35:09;;;;;;;14.82;8.95;;;11.90;99.90;;;;;;5056056;28;20036;-66
2022/09/26 01:37:54;;;;;;;16.02;9.52;;;11.90;99.90;;;;;;5055761;28;20033;-66
2022/09/26 01:40:34;;;;;;;12.88;9.02;;;11.80;99.90;;;;;;5055599;28;20022;-66
2022/09/26 01:43:08;;;;;;;14.18;9.52;;;11.80;99.90;;;;;;5055897;28;20024;-66
2022/09/26 01:46:03;;;;;;;13.18;8.57;;;12.00;99.90;;;;;;5055607;28;20029;-66
2022/09/26 01:48:36;;;;;;;11.95;8.65;;;12.10;99.90;;;;;;5048673;28;20478;-66
2022/09/26 01:51:13;;;;;;;13.50;8.90;;;12.00;99.90;;;;;;5055462;28;20025;-66
2022/09/26 01:53:58;;;;;;;11.43;8.38;;;12.00;99.90;;;;;;5037743;28;20033;-65
2022/09/26 01:56:27;;;;;;;13.43;9.18;;;11.90;99.90;;;;;;5055590;28;20036;-66
2022/09/26 01:58:58;;;;;;;11.00;9.15;;;12.00;99.90;;;;;;5037423;28;20021;-65
2022/09/26 02:01:28;;;;;;;13.20;8.93;;;11.90;99.90;;;;;;5055775;28;20398;-66
2022/09/26 02:04:03;;;;;;;12.98;8.98;;;11.90;99.90;;;;;;5055261;28;20103;-65
2022/09/26 02:07:04;;;;;;;13.07;9.02;;;12.00;99.90;;;;;;5055570;28;20017;-66
2022/09/26 02:09:42;;;;;;;12.95;8.88;;;11.90;99.90;;;;;;5055037;28;20028;-66
2022/09/26 02:12:13;;;;;;;16.17;9.07;;;11.90;99.90;;;;;;5055082;28;20151;-66
2022/09/26 02:14:41;;;;;;;15.60;9.35;;;11.80;99.90;;;;;;5055126;28;20025;-66
2022/09/26 02:17:16;;;;;;;14.80;10.15;;;11.70;99.90;;;;;;5054908;28;20036;-66
2022/09/26 02:19:57;;;;;;;13.20;9.30;;;11.70;99.90;;;;;;5055111;28;20404;-66
2022/09/26 02:22:28;;;;;;;13.60;9.35;;;11.80;99.90;;;;;;5054056;28;20079;-66
2022/09/26 02:24:53;;;;;;;13.88;9.68;;;11.80;99.90;;;;;;5055212;28;20045;-66
2022/09/26 02:27:19;;;;;;;14.50;8.40;;;11.80;99.90;;;;;;5055017;28;20547;-66
2022/09/26 02:29:45;;;;;;;14.40;9.60;;;11.80;99.90;;;;;;5054646;28;20252;-66
2022/09/26 02:32:16;;;;;;;15.45;9.10;;;11.90;99.90;;;;;;5036831;28;20112;-66
2022/09/26 02:34:45;;;;;;;13.85;8.85;;;12.00;99.90;;;;;;5055016;28;20470;-66
2022/09/26 02:37:12;;;;;;;13.75;8.73;;;12.00;99.90;;;;;;5054551;28;20029;-66
2022/09/26 02:39:39;;;;;;;14.18;8.63;;;11.90;99.90;;;;;;5054401;28;20028;-66
2022/09/26 02:42:23;;;;;;;15.38;8.93;;;11.90;99.90;;;;;;5054414;28;20025;-66
2022/09/26 02:45:07;;;;;;;14.45;8.32;;;12.00;99.90;;;;;;5054973;28;20035;-66
2022/09/26 02:47:50;;;;;;;13.75;9.50;;;11.90;99.90;;;;;;5054624;28;20029;-66
2022/09/26 02:50:36;;;;;;;13.20;9.13;;;11.90;99.90;;;;;;5054706;28;20090;-66
2022/09/26 02:53:31;;;;;;;16.50;9.48;;;11.80;99.90;;;;;;5054645;28;20029;-66
2022/09/26 02:56:05;;;;;;;20.92;11.18;;;11.80;99.90;;;;;;5054877;28;20025;-65
2022/09/26 02:59:00;;;;;;;16.90;10.75;;;11.80;99.90;;;;;;5054561;28;20025;-66
2022/09/26 03:01:39;;;;;;;16.83;10.85;;;11.80;99.90;;;;;;5055039;28;20025;-66
2022/09/26 03:04:19;;;;;;;14.05;9.75;;;11.80;99.90;;;;;;5054543;28;20014;-65
2022/09/26 03:06:48;;;;;;;16.20;9.27;;;11.70;99.90;;;;;;5054601;28;20025;-65
2022/09/26 03:09:15;;;;;;;15.55;9.88;;;11.80;99.90;;;;;;5054238;28;20193;-66
2022/09/26 03:11:42;;;;;;;17.45;10.35;;;11.70;99.90;;;;;;5054243;28;20489;-66
2022/09/26 03:14:08;;;;;;;;;;;11.70;99.90;;;;;;5054871;28;20033;-65
2022/09/26 03:16:38;;;;;;;25.73;11.90;;;11.70;99.90;;;;;;5054104;28;20285;-65
2022/09/26 03:19:30;;;;;;;19.40;11.43;;;11.60;99.90;;;;;;5054222;28;20036;-66
2022/09/26 03:21:57;;;;;;;20.27;12.90;;;11.60;99.90;;;;;;5041378;28;20040;-65
2022/09/26 03:24:23;;;;;;;17.88;12.45;;;11.70;99.90;;;;;;5053745;28;20045;-66
2022/09/26 03:26:49;;;;;;;19.08;12.98;;;11.80;99.90;;;;;;5053887;28;20025;-66
2022/09/26 03:29:16;;;;;;;17.83;12.25;;;11.80;99.90;;;;;;5053676;28;20107;-66
2022/09/26 03:31:43;;;;;;;19.98;13.35;;;11.70;99.90;;;;;;5053809;28;20482;-65
2022/09/26 03:34:08;;;;;;;18.05;12.30;;;11.70;99.90;;;;;;5053948;28;20055;-66
2022/09/26 03:36:34;;;;;;;18.17;12.50;;;11.70;99.90;;;;;;5053882;28;20068;-66
2022/09/26 03:38:59;;;;;;;19.10;12.53;;;11.70;99.90;;;;;;5053750;28;20021;-65
2022/09/26 03:41:25;;;;;;;18.37;11.90;;;11.70;99.90;;;;;;5053757;28;20024;-66
2022/09/26 03:43:50;;;;;;;17.03;11.63;;;11.70;99.90;;;;;;5053522;28;20036;-66
2022/09/26 03:46:17;;;;;;;17.93;11.77;;;11.60;99.90;;;;;;5053440;28;20386;-66
2022/09/26 03:48:42;;;;;;;16.52;11.38;;;11.60;99.90;;;;;;5053468;28;20352;-66
2022/09/26 03:51:12;;;;;;;16.93;11.77;;;11.50;99.90;;;;;;5053721;28;20029;-65
2022/09/26 03:53:40;;;;;;;18.58;12.00;;;11.50;99.90;;;;;;5054268;28;20021;-66
2022/09/26 03:56:08;;;;;;;19.02;11.85;;;11.50;99.90;;;;;;5053567;28;20021;-65
2022/09/26 03:58:34;;;;;;;18.50;13.02;;;11.50;99.90;;;;;;5053097;28;20071;-65
2022/09/26 04:01:11;;;;;;;17.95;12.45;;;11.40;99.90;;;;;;5053346;28;20036;-66
2022/09/26 04:03:39;;;;;;;15.93;11.45;;;11.40;99.90;;;;;;5053380;28;20334;-66
2022/09/26 04:06:07;;;;;;;19.13;12.52;;;11.30;99.90;;;;;;5052778;28;20032;-65
2022/09/26 04:08:33;;;;;;;18.42;11.05;;;11.40;99.90;;;;;;5053094;28;20504;-65
2022/09/26 04:11:08;;;;;;;17.88;12.02;;;11.40;99.90;;;;;;5053114;28;20482;-65
2022/09/26 04:13:34;;;;;;;17.83;11.27;;;11.20;99.90;;;;;;5053813;28;20436;-65
2022/09/26 04:16:01;;;;;;;14.82;10.50;;;11.20;99.90;;;;;;5035265;28;20504;-65
2022/09/26 04:18:28;;;;;;;16.13;10.93;;;11.30;99.90;;;;;;5053124;28;20037;-65
2022/09/26 04:21:08;;;;;;;17.48;11.15;;;11.20;99.90;;;;;;5053200;28;20097;-64
2022/09/26 04:23:35;;;;;;;18.63;11.05;;;11.30;99.90;;;;;;5053728;28;20116;-65
2022/09/26 04:26:08;;;;;;;16.42;11.15;;;11.30;99.90;;;;;;5053060;28;20021;-64
2022/09/26 04:28:35;;;;;;;14.98;10.32;;;11.30;99.90;;;;;;5053455;28;20032;-65
2022/09/26 04:31:01;;;;;;;20.08;11.60;;;11.30;99.90;;;;;;5053082;28;20107;-65
2022/09/26 04:33:28;;;;;;;15.30;10.30;;;11.30;99.90;;;;;;5053111;28;20033;-65
2022/09/26 04:35:54;;;;;;;;;;;11.20;99.90;;;;;;5053300;28;20028;-66
2022/09/26 04:38:20;;;;;;;15.30;9.32;;;11.20;99.90;;;;;;5053129;28;19931;-65
2022/09/26 04:40:45;;;;;;;14.65;10.25;;;11.10;99.90;;;;;;5052765;28;20090;-66
2022/09/26 04:43:11;;;;;;;16.07;9.37;;;11.10;99.90;;;;;;5052827;28;20026;-66
2022/09/26 04:45:42;;;;;;;14.32;8.93;;;11.10;99.90;;;;;;5055160;28;20263;-66
2022/09/26 04:48:09;;;;;;;16.48;8.43;;;11.00;99.90;;;;;;5056731;28;20103;-66
2022/09/26 04:50:35;;;;;;;12.35;8.88;;;11.00;99.90;;;;;;5057104;28;20017;-66
2022/09/26 04:53:00;;;;;;;13.23;8.88;;;10.90;99.90;;;;;;5057066;28;20104;-65
2022/09/26 04:55:26;;;;;;;13.25;9.18;;;10.90;99.90;;;;;;5057212;28;20057;-65
2022/09/26 04:57:51;;;;;;;17.43;9.53;;;11.00;99.90;;;;;;5056489;28;20032;-66
2022/09/26 05:00:17;;;;;;;13.43;8.70;;;10.90;99.90;;;;;;5056337;28;20071;-66
2022/09/26 05:02:46;;;;;;;15.63;9.13;;;10.90;99.90;;;;;;5056698;28;20516;-67
2022/09/26 05:05:12;;;;;;;13.70;8.27;;;10.90;99.90;;;;;;5056499;28;20051;-66
2022/09/26 05:07:41;;;;;;;13.60;10.10;;;10.80;99.90;;;;;;5056674;28;20021;-66
2022/09/26 05:10:09;;;;;;;12.77;8.32;;;10.80;99.90;;;;;;5056670;28;20029;-67
2022/09/26 05:12:37;;;;;;;15.88;8.52;;;10.90;99.90;;;;;;5056611;28;20029;-65
2022/09/26 05:15:04;;;;;;;13.15;7.55;;;10.70;99.90;;;;;;5056378;28;20429;-65
2022/09/26 05:17:31;;;;;;;11.52;7.57;;;10.80;99.90;;;;;;5056278;28;20029;-65
2022/09/26 05:19:59;;;;;;;13.93;7.85;;;10.80;99.90;;;;;;5056418;28;20028;-65
2022/09/26 05:22:27;;;;;;;13.23;8.30;;;10.80;99.90;;;;;;5056757;28;20100;-65
2022/09/26 05:27:37;;;;;;;10.00;7.47;;;10.90;99.90;;;;;;5056041;28;20036;-65
2022/09/26 05:30:03;;;;;;;10.30;7.03;;;10.90;99.90;;;;;;5055987;28;20025;-65
2022/09/26 05:32:28;;;;;;;11.10;6.90;;;10.90;99.90;;;;;;5056083;28;20033;-65
2022/09/26 05:34:54;;;;;;;9.50;6.73;;;10.80;99.90;;;;;;5055739;28;20044;-65
2022/09/26 05:37:20;;;;;;;10.57;7.00;;;10.70;99.90;;;;;;5055916;28;20040;-64
2022/09/26 05:42:30;;;;;;;10.75;5.93;;;10.70;99.90;;;;;;5055940;28;20527;-65
2022/09/26 05:44:55;;;;;;;8.83;7.07;;;10.70;99.90;;;;;;5055452;28;20106;-63
2022/09/26 05:47:21;;;;;;;8.67;5.80;;;10.70;99.90;;;;;;5055515;28;20031;-63
2022/09/26 05:49:46;;;;;;;9.00;6.10;;;10.80;99.90;;;;;;5055668;28;20029;-66
2022/09/26 05:52:11;;;;;;;10.03;6.27;;;10.90;99.90;;;;;;5055323;28;20100;-64
2022/09/26 05:54:37;;;;;;;14.17;7.63;;;10.90;99.90;;;;;;5037770;28;20036;-64
2022/09/26 05:57:03;;;;;;;12.97;7.53;;;10.80;99.90;;;;;;5054080;28;20021;-64
2022/09/26 05:59:28;;;;;;;12.10;7.23;;;10.80;99.90;;;;;;5055879;28;20048;-65
2022/09/26 06:01:54;;;;;;;13.63;7.30;;;10.80;99.90;;;;;;5056593;28;20056;-66
2022/09/26 06:04:19;;;;;;;12.68;7.95;;;10.70;99.90;;;;;;5055497;28;20107;-64
2022/09/26 06:06:45;;;;;;;11.83;7.83;;;10.60;99.90;;;;;;5054994;28;20028;-64
2022/09/26 06:09:11;;;;;;;13.93;8.07;;;10.60;99.90;;;;;;5055790;28;20029;-64
2022/09/26 06:11:36;;;;;;;11.70;7.47;;;10.50;99.90;;;;;;5037265;28;20021;-64
2022/09/26 06:14:02;;;;;;;11.50;7.53;;;10.60;99.90;;;;;;5055251;28;20266;-65
2022/09/26 06:16:27;;;;;;;9.80;6.93;;;10.60;99.90;;;;;;5055643;28;20474;-65
2022/09/26 06:18:54;;;;;;;9.77;7.45;;;10.70;99.90;;;;;;5055723;28;20017;-64
2022/09/26 06:21:20;;;;;;;10.38;8.30;;;10.80;99.90;;;;;;5054847;28;20025;-65
2022/09/26 06:23:46;;;;;;;11.13;8.35;;;10.80;99.90;;;;;;5054797;28;20029;-64
2022/09/26 06:26:21;;;;;;;11.43;7.50;;;10.80;99.90;;;;;;5054742;28;20021;-64
2022/09/26 06:28:50;;;;;;;10.55;7.50;;;10.80;99.90;;;;;;5054772;28;20032;-64
2022/09/26 06:31:17;;;;;;;8.77;6.40;;;10.80;99.90;;;;;;5054675;28;20035;-64
2022/09/26 06:33:43;;;;;;;9.70;6.38;;;10.90;99.90;;;;;;5054691;28;20055;-64
2022/09/26 06:36:10;;;;;;;12.27;7.05;;;10.90;99.90;;;;;;5054855;28;20044;-64
2022/09/26 06:38:37;;;;;;;13.43;6.80;;;10.90;99.90;;;;;;5054834;28;20432;-65
2022/09/26 06:41:02;;;;;;;;;;;10.90;99.90;;;;;;5055088;28;20075;-65
2022/09/26 06:43:28;;;;;;;9.02;6.68;;;10.80;99.90;;;;;;5054490;28;19912;-64
2022/09/26 06:45:54;;;;;;;8.40;6.32;;;10.90;99.90;;;;;;5054759;28;20393;-64
2022/09/26 06:48:21;;;;;;;9.43;6.37;;;10.90;99.90;;;;;;5054303;28;20108;-64
2022/09/26 06:50:55;;;;;;;10.10;6.30;;;11.00;99.90;;;;;;5055397;28;20497;-64
2022/09/26 06:53:21;;;;;;;10.25;5.72;;;11.00;99.90;;;;;;5054937;28;20024;-64
2022/09/26 06:55:47;;;;;;;7.50;5.27;;;11.10;99.90;;;;;;5055061;28;20547;-64
2022/09/26 06:58:13;;;;;;;9.30;5.88;;;11.20;99.90;;;;;;5056155;28;20031;-64
2022/09/26 07:00:39;;;;;;;9.63;5.10;;;11.30;99.90;;;;;;5036950;28;20032;-64
2022/09/26 07:03:05;;;;;;;12.48;5.80;;;11.40;99.90;;;;;;5054942;28;20029;-64
2022/09/26 07:05:30;;;;;;;10.75;4.75;;;11.40;99.90;;;;;;5056288;28;20496;-65
2022/09/26 07:07:57;;;;;;;10.40;5.10;;;11.40;99.90;;;;;;5056350;28;20040;-65
2022/09/26 07:10:23;;;;;;;8.55;4.30;;;11.50;99.90;;;;;;5056302;28;20031;-64
2022/09/26 07:12:49;;;;;;;10.80;4.80;;;11.50;99.90;;;;;;5037615;28;20128;-64
2022/09/26 07:15:17;;;;;;;7.43;3.60;;;11.60;99.90;;;;;;5055467;28;20029;-64
2022/09/26 07:17:45;;;;;;;4.75;3.60;;;11.70;99.90;;;;;;5053895;28;20077;-64
2022/09/26 07:20:13;;;;;;;6.03;3.50;;;11.70;99.90;;;;;;5053912;28;20017;-64
2022/09/26 07:22:39;;;;;;;8.80;3.38;;;11.70;99.90;;;;;;5054057;28;20040;-64
2022/09/26 07:25:05;;;;;;;6.83;3.53;;;11.80;99.90;;;;;;5053859;28;20473;-64
2022/09/26 07:27:31;;;;;;;;;;;11.80;99.90;;;;;;5054669;28;20017;-64
2022/09/26 07:29:57;;;;;;;7.15;3.25;;;11.90;99.90;;;;;;5053808;28;20000;-64
2022/09/26 07:32:23;;;;;;;4.80;2.78;;;11.90;99.90;;;;;;5054224;28;20017;-64
2022/09/26 07:34:49;;;;;;;5.45;3.13;;;12.00;99.90;;;;;;5035600;28;20078;-64
2022/09/26 07:37:15;;;;;;;8.17;3.53;;;12.00;99.90;;;;;;5053391;28;20454;-64
2022/09/26 07:39:41;;;;;;;7.03;3.80;;;12.10;99.90;;;;;;5053054;28;20080;-64
2022/09/26 07:42:08;;;;;;;4.17;3.20;;;12.20;99.90;;;;;;5053699;28;20021;-64
2022/09/26 07:44:34;;;;;;;7.15;3.28;;;12.20;99.90;;;;;;5053895;28;20017;-64
2022/09/26 07:52:29;;;;;;;9.85;3.92;;;12.40;99.90;;;;;;5053585;28;20420;-64
2022/09/26 07:54:55;;;;;;;9.35;3.47;;;12.40;99.90;;;;;;5053672;28;20021;-64
2022/09/26 07:57:20;;;;;;;9.07;3.63;;;12.50;99.90;;;;;;5053631;28;20075;-64
2022/09/26 07:59:49;;;;;;;5.30;3.27;;;12.60;99.90;;;;;;5053384;28;20037;-64
2022/09/26 08:02:22;;;;;;;6.05;3.50;;;12.70;99.90;;;;;;5053441;28;20049;-64
2022/09/26 08:04:48;;;;;;;5.85;3.40;;;12.60;99.90;;;;;;5053318;28;20075;-64
2022/09/26 08:07:14;;;;;;;6.80;3.65;;;12.70;99.90;;;;;;5053292;28;20033;-64
2022/09/26 08:09:39;;;;;;;9.43;3.72;;;12.70;99.90;;;;;;5052885;28;20025;-64
2022/09/26 08:12:05;;;;;;;4.70;3.17;;;12.80;99.90;;;;;;5053435;28;20029;-63
2022/09/26 08:14:30;;;;;;;6.67;3.60;;;12.90;99.90;;;;;;5053398;28;20029;-64
2022/09/26 08:16:56;;;;;;;9.77;3.97;;;13.00;99.90;;;;;;5053132;28;20021;-64
2022/09/26 08:19:21;;;;;;;6.67;3.20;;;13.20;99.90;;;;;;5053365;28;20510;-64
2022/09/26 08:21:47;;;;;;;5.57;4.07;;;13.30;99.90;;;;;;5057378;28;20331;-64
2022/09/26 08:24:13;;;;;;;6.85;3.53;;;13.40;99.90;;;;;;5057330;28;20021;-65
2022/09/26 08:26:39;;;;;;;5.50;3.50;;;13.50;99.90;;;;;;5057438;28;20031;-64
2022/09/26 08:29:08;;;;;;;7.40;3.53;;;13.50;99.90;;;;;;5057018;28;20032;-64
2022/09/26 08:31:34;;;;;;;8.52;4.03;;;13.50;99.90;;;;;;5058057;28;20029;-64
2022/09/26 08:33:59;;;;;;;5.70;3.58;;;13.60;99.90;;;;;;5057923;28;20428;-64
2022/09/26 08:36:25;;;;;;;5.03;3.60;;;13.70;99.90;;;;;;5057059;28;20035;-64
2022/09/26 08:38:51;;;;;;;;;;;13.80;99.90;;;;;;5057434;28;20504;-64
2022/09/26 08:41:31;;;;;;;5.93;3.55;;;13.90;99.90;;;;;;5057105;28;20003;-65
2022/09/26 08:44:34;;;;;;;10.70;3.72;;;14.00;99.90;;;;;;5057495;28;20013;-64
2022/09/26 08:47:16;;;;;;;6.47;3.60;;;14.20;99.90;;;;;;5057736;28;20031;-65
2022/09/26 08:49:41;;;;;;;7.97;3.65;;;14.40;99.90;;;;;;5039723;28;20024;-64
2022/09/26 08:52:36;;;;;;;6.40;3.50;;;14.70;99.90;;;;;;5039734;28;20122;-65
2022/09/26 08:55:13;;;;;;;5.20;3.42;;;15.00;99.90;;;;;;5058941;28;20434;-64
2022/09/26 08:57:49;;;;;;;;;;;16.30;99.90;;;;;;5057855;28;20029;-65
2022/09/26 09:00:24;;;;;;;6.35;3.03;;;19.20;99.90;;;;;;5057324;28;19912;-64
2022/09/26 09:02:55;;;;;;;4.70;2.83;;;21.80;99.90;;;;;;5056961;28;20357;-63
2022/09/26 09:05:44;;;;;;;6.88;3.03;;;23.30;98.60;;;;;;5056646;28;20485;-65
2022/09/26 09:08:20;;;;;;;7.03;2.80;;;22.60;97.80;;;;;;5056539;28;20048;-64
2022/09/26 09:11:00;;;;;;;4.47;2.90;;;21.20;99.90;;;;;;5056518;28;20021;-64
2022/09/26 09:13:55;;;;;;;4.05;2.65;;;19.80;99.90;;;;;;5056712;28;20025;-64
2022/09/26 09:16:52;;;;;;;9.07;2.67;;;19.10;99.90;;;;;;5025132;28;20033;-64
2022/09/26 09:19:54;;;;;;;6.50;2.67;;;19.00;99.90;;;;;;5056413;28;20465;-64
2022/09/26 09:22:53;;;;;;;6.05;2.55;;;18.40;99.90;;;;;;5056548;28;20517;-64
2022/09/26 09:25:56;;;;;;;5.28;2.42;;;19.00;99.90;;;;;;5056319;28;20021;-64
2022/09/26 09:28:59;;;;;;;5.05;2.50;;;20.20;99.90;;;;;;4994644;28;20142;-64
2022/09/26 09:31:28;;;;;;;6.30;2.10;;;20.60;99.90;;;;;;4994459;28;20077;-64
2022/09/26 09:34:00;;;;;;;5.95;2.28;;;21.50;99.90;;;;;;4994487;28;20073;-64
2022/09/26 09:36:57;;;;;;;4.68;2.50;;;21.00;99.90;;;;;;4994669;28;20027;-63
2022/09/26 09:39:39;;;;;;;5.82;2.10;;;21.30;99.90;;;;;;4978190;28;20483;-63
2022/09/26 09:42:35;;;;;;;4.60;2.17;;;21.50;99.20;;;;;;4995092;28;20030;-63
2022/09/26 09:45:11;;;;;;;5.28;2.20;;;20.90;99.90;;;;;;4994754;28;20093;-63
2022/09/26 09:47:38;;;;;;;4.97;2.00;;;20.60;99.90;;;;;;4994995;28;20371;-64
2022/09/26 09:50:13;;;;;;;3.25;1.95;;;20.10;99.90;;;;;;4994488;28;20041;-63
2022/09/26 09:52:49;;;;;;;4.15;1.80;;;19.50;99.90;;;;;;4994590;28;20113;-63
2022/09/26 09:55:24;;;;;;;4.85;2.35;;;18.80;99.90;;;;;;4994484;28;20475;-65
2022/09/26 09:58:19;;;;;;;4.57;2.05;;;18.30;99.90;;;;;;4994404;28;20078;-65
2022/09/26 10:01:00;;;;;;;4.50;2.47;;;17.80;99.90;;;;;;4983891;28;20499;-64
2022/09/26 10:03:36;;;;;;;3.75;1.95;;;17.30;99.90;;;;;;4995390;28;20041;-64
2022/09/26 10:06:04;;;;;;;3.70;2.03;;;17.00;99.90;;;;;;5055242;28;20021;-64
2022/09/26 10:08:32;;;;;;;6.07;1.77;;;18.00;99.90;;;;;;5055437;28;20313;-64
2022/09/26 10:11:20;;;;;;;4.72;1.80;;;19.80;99.90;;;;;;5055184;28;20029;-63
2022/09/26 10:13:48;;;;;;;5.10;1.80;;;20.40;99.90;;;;;;5055221;28;20029;-64
2022/09/26 10:16:14;;;;;;;4.00;1.70;;;19.90;99.90;;;;;;5055129;28;20029;-66
2022/09/26 10:19:07;;;;;;;3.38;1.70;;;19.10;99.90;;;;;;5055443;28;20021;-64
2022/09/26 10:21:39;;;;;;;10.77;2.00;;;18.10;99.90;;;;;;5055250;28;20021;-64
2022/09/26 10:24:21;;;;;;;5.10;1.83;;;17.60;99.90;;;;;;5055565;28;20024;-67
2022/09/26 10:26:48;;;;;;;4.57;2.38;;;17.20;99.90;;;;;;5058129;28;20378;-64
2022/09/26 10:29:32;;;;;;;8.50;3.25;;;16.40;99.90;;;;;;5056998;28;20025;-65
2022/09/26 10:31:59;;;;;;;15.57;3.55;;;16.00;99.90;;;;;;5056029;28;20389;-65
2022/09/26 10:34:29;;;;;;;7.43;2.75;;;15.60;99.90;;;;;;5055503;28;20060;-65
2022/09/26 10:36:56;;;;;;;4.72;2.60;;;15.20;99.90;;;;;;5056507;28;20485;-65
2022/09/26 10:42:20;;;;;;;5.45;3.50;;;15.60;99.90;;;;;;5059955;28;20032;-64
2022/09/26 10:44:49;;;;;;;8.65;3.47;;;17.00;99.90;;;;;;5046762;28;20071;-64
2022/09/26 10:47:21;;;;;;;5.68;2.80;;;17.60;99.90;;;;;;5062785;28;20048;-65
2022/09/26 10:49:54;;;;;;;4.65;2.55;;;17.40;99.90;;;;;;5059862;28;20418;-64
2022/09/26 10:52:33;;;;;;;3.50;2.67;;;17.10;99.90;;;;;;5041558;28;20032;-64
2022/09/26 10:55:12;;;;;;;7.40;3.20;;;17.30;99.90;;;;;;5056954;28;20021;-63
2022/09/26 10:57:54;;;;;;;7.05;3.13;;;17.40;99.90;;;;;;5055982;28;20529;-63
2022/09/26 11:00:42;;;;;;;5.43;3.03;;;17.20;99.90;;;;;;5055143;28;20451;-63
2022/09/26 11:03:11;;;;;;;;;;;17.00;99.90;;;;;;5055820;28;20017;-64
2022/09/26 11:05:58;;;;;;;6.82;2.80;;;16.70;99.90;;;;;;5037024;28;19904;-63
2022/09/26 11:08:32;;;;;;;5.80;2.80;;;16.40;99.90;;;;;;5054936;28;20021;-63
2022/09/26 11:11:01;;;;;;;4.97;2.83;;;16.10;99.90;;;;;;5054723;28;20266;-64
2022/09/26 11:13:31;;;;;;;6.28;2.83;;;16.20;99.90;;;;;;5055112;28;20029;-64
2022/09/26 11:16:01;;;;;;;6.03;3.10;;;16.10;99.90;;;;;;5054382;28;20039;-64
2022/09/26 11:18:49;;;;;;;5.85;2.95;;;16.10;99.90;;;;;;5035992;28;20048;-64
2022/09/26 11:21:24;;;;;;;6.78;2.90;;;16.20;99.90;;;;;;5053888;28;20114;-62
2022/09/26 11:24:01;;;;;;;9.70;3.20;;;16.20;99.90;;;;;;5053748;28;20118;-62
2022/09/26 11:26:31;;;;;;;6.22;2.92;;;16.10;99.90;;;;;;5053902;28;20024;-64
2022/09/26 11:29:23;;;;;;;7.00;2.60;;;15.90;99.90;;;;;;5053995;28;20074;-64
2022/09/26 11:31:49;;;;;;;6.57;2.72;;;15.70;99.90;;;;;;5054242;28;20031;-63
2022/09/26 11:34:26;;;;;;;7.50;3.28;;;15.50;99.90;;;;;;5054700;28;20111;-65
2022/09/26 11:37:29;;;;;;;11.32;3.03;;;15.10;99.90;;;;;;5055038;28;20037;-67
2022/09/26 11:40:18;;;;;;;8.57;2.60;;;14.60;99.90;;;;;;5054863;28;20493;-67
2022/09/26 11:42:56;;;;;;;3.83;1.85;;;14.20;99.90;;;;;;5054408;28;20036;-67
2022/09/26 11:46:03;;;;;;;3.70;1.85;;;13.80;99.90;;;;;;5054021;28;20044;-66
2022/09/26 11:48:42;;;;;;;5.80;1.95;;;13.50;99.90;;;;;;5036386;28;20029;-67
2022/09/26 11:51:18;;;;;;;5.07;1.60;;;13.20;99.90;;;;;;5055033;28;20100;-67
2022/09/26 11:53:53;;;;;;;11.50;1.70;;;12.90;99.90;;;;;;5054648;28;20046;-67
2022/09/26 11:56:47;;;;;;;7.80;2.10;;;12.80;99.90;;;;;;5037247;28;20481;-69
2022/09/26 11:59:54;;;;;;;7.15;2.28;;;12.60;99.90;;;;;;5055823;28;20067;-69
2022/09/26 12:02:59;;;;;;;5.97;1.90;;;12.60;99.90;;;;;;5047963;28;20028;-71
2022/09/26 12:05:30;;;;;;;4.75;1.80;;;12.70;99.90;;;;;;5056259;28;20021;-71
2022/09/26 12:08:20;;;;;;;6.18;3.03;;;12.80;99.90;;;;;;5054509;28;20025;-70
2022/09/26 12:10:49;;;;;;;4.20;2.33;;;12.80;99.90;;;;;;5036544;28;20032;-70
2022/09/26 12:13:38;;;;;;;4.97;2.08;;;12.90;99.90;;;;;;5036350;28;20082;-68
2022/09/26 12:16:11;;;;;;;3.90;2.25;;;13.00;99.90;;;;;;5035408;28;20451;-68
2022/09/26 12:19:15;;;;;;;7.65;2.97;;;12.90;99.90;;;;;;5035201;28;20075;-69
2022/09/26 12:22:28;;;;;;;9.63;3.47;;;12.80;99.90;;;;;;5053523;28;20024;-71
2022/09/26 12:25:03;;;;;;;8.70;3.70;;;12.60;99.90;;;;;;5035628;28;20581;-69
2022/09/26 12:28:00;;;;;;;8.25;3.25;;;12.60;99.90;;;;;;5035330;28;20477;-70
2022/09/26 12:30:33;;;;;;;11.13;4.20;;;12.60;99.90;;;;;;5053150;28;20025;-70
2022/09/26 12:33:32;;;;;;;7.57;3.00;;;12.50;99.90;;;;;;5035848;28;20036;-70
2022/09/26 12:36:17;;;;;;;7.10;2.03;;;12.30;99.90;;;;;;5053734;28;20081;-68
2022/09/26 12:39:27;;;;;;;4.30;2.58;;;12.30;99.90;;;;;;5054677;28;20485;-69
2022/09/26 12:42:12;;;;;;;5.65;2.65;;;12.30;99.90;;;;;;4991866;28;20098;-68
2022/09/26 12:45:05;;;;;;;5.80;2.13;;;12.30;99.90;;;;;;5052211;28;20457;-69
2022/09/26 12:47:48;;;;;;;7.85;4.10;;;12.40;99.90;;;;;;5053549;28;20493;-70
2022/09/26 12:50:29;;;;;;;7.57;3.92;;;12.50;99.90;;;;;;5035170;28;20096;-69
2022/09/26 12:53:16;;;;;;;6.20;3.20;;;12.50;99.90;;;;;;5035050;28;20025;-70
2022/09/26 12:55:50;;;;;;;12.13;6.72;;;12.50;99.90;;;;;;5053175;28;20033;-70
2022/09/26 12:58:15;;;;;;;5.28;2.90;;;12.70;99.90;;;;;;5034757;28;20025;-70
2022/09/26 13:01:07;;;;;;;4.83;2.67;;;12.80;99.90;;;;;;5035543;28;20025;-69
2022/09/26 13:04:19;;;;;;;6.10;2.60;;;13.10;99.90;;;;;;5053086;28;20506;-69
2022/09/26 13:07:10;;;;;;;4.85;2.58;;;13.50;99.90;;;;;;5055165;28;20029;-67
2022/09/26 13:10:01;;;;;;;7.75;3.95;;;13.90;99.90;;;;;;5056844;28;20115;-67
2022/09/26 13:12:50;;;;;;;4.13;2.30;;;14.10;99.90;;;;;;5056430;28;20501;-66
2022/09/26 13:15:24;;;;;;;6.75;2.90;;;14.30;99.90;;;;;;5056580;28;20033;-68
2022/09/26 13:17:57;;;;;;;6.22;2.63;;;14.50;99.90;;;;;;5056448;28;20029;-65
2022/09/26 13:20:42;;;;;;;4.53;2.10;;;14.60;99.90;;;;;;5056139;28;20481;-64
2022/09/26 13:23:18;;;;;;;3.63;2.20;;;14.70;99.90;;;;;;5056109;28;20017;-66
2022/09/26 13:25:59;;;;;;;4.93;2.35;;;14.80;99.90;;;;;;5056720;28;20013;-62
2022/09/26 13:28:36;;;;;;;4.05;1.80;;;15.10;99.90;;;;;;5056473;28;20025;-64
2022/09/26 13:31:08;;;;;;;3.10;1.60;;;15.20;99.90;;;;;;5056238;28;20029;-65